Delray Beach, FL (33448)

11:11 PM EDT on April 29, 2017 (GMT -0400)
MLXWS | | Change Station

Elev 9 ft 26.50 °N, 80.22 °W | Updated 2 minutes ago

Mostly Cloudy
Mostly Cloudy
77.0 °F
Feels Like 79 °F
N
10.0
Wind Variable Wind from North
Gusts 17.0 mph

Today
High -- | Low -- °F
--% Chance of Precip.
Yesterday
High -- | Low -- °F
Precip. -- in
Pressure 30.12 in
Visibility 8.0 miles
Clouds Few 2000 ft
Scattered Clouds 2700 ft
Mostly Cloudy 3400 ft
Heat Index 79 °F
Dew Point 72.0 °F
Humidity 82%
Rainfall 0.00 in
Snow Depth Not available.
6:43 AM 7:51 PM
Waxing Crescent, 18% visible
METAR KPMP 300253Z AUTO 10013KT 8SM -RA FEW020 SCT027 BKN034 26/22 A3012 RMK AO2 RAB51 SLP200 P0000 60000 T02610222 53007
Pressure 30.12 in
Visibility 8.0 miles
Clouds Few 2000 ft
Scattered Clouds 2700 ft
Mostly Cloudy 3400 ft
Heat Index 79 °F
Dew Point 72.0 °F
Humidity 82%
Rainfall 0.00 in
Snow Depth Not available.
6:43 AM 7:51 PM
Waxing Crescent, 18% visible
METAR KPMP 300253Z AUTO 10013KT 8SM -RA FEW020 SCT027 BKN034 26/22 A3012 RMK AO2 RAB51 SLP200 P0000 60000 T02610222 53007

Get Severe Weather Alerts

Thanks for signing up!

Be on the lookout for a verification email in your inbox.

You'll start receiving the daily forecast at 8 AM.

×

10-Day Weather Forecast

Almanac

Astronomy

Apr. 29, 2017 Rise Set
Actual Time
Civil Twilight
Nautical Twilight
Astronomical Twilight
Moon
Length of Visible Light
Length of Day
Tomorrow will be .
, % of the Moon is Illuminated

Today's Extremes

State Highs State Lows

Community

WunderPhotos

WunderBlog® & News

Nearby

Air Quality

  Air Quality AQ Index Pollutant
Not available.

Snow Depth

Station Depth Elevation

Earthquake Activity

City Distance Mag. Time & Date
Minimum magnitude displayed is 2.5.

Coastal Water Temperatures

Place Temperature

Stations

Nearby Weather Stations

Station Location Temp. Windchill Dew Point Humidity Wind Precip. Elev Updated Type
                   

Watches & Warnings

There are currently no watches in effect.